Terminal Aerodrome Forecast
Issued by NWS

Home | Current Version | Previous Version | Text Only | Print | Product List | Glossary On
Versions: 1 2 3 4 5 6 7 8 9 10 11 12 13 14
000
FTUS43 KICT 231400 AAA
TAFHUT
TAF AMD
KHUT 231400Z 2314/2412 01015G25KT P6SM VCSH SCT035 BKN080
      TEMPO 2315/2318 6SM -TSRA OVC040CB
     FM231800 02017G25KT P6SM BKN090
     FM240000 01009KT P6SM SCT200
     FM240300 36005KT P6SM SKC=

USA.gov is the U.S. government's official web portal to all federal, state and local government web resources and services.